Time;durP1;ratioP1;P1;durP2;ratioP2;P2;SDS_P1;SDS_P2;PMS_P1;PMS_P2;Temp;Humidity;BMP_temperature;BMP_pressure;BME280_temperature;BME280_humidity;BME280_pressure;Samples;Min_cycle;Max_cycle;Signal;HPM_P1;HPM_P2
2023/02/18 00:01:09;;;;;;;52.63;21.42;;;;;;;;;;5071222;28;20021;-50
2023/02/18 00:03:34;;;;;;;53.00;21.38;;;;;;;;;;5070993;28;20033;-50
2023/02/18 00:06:00;;;;;;;68.68;22.95;;;;;;;;;;5071315;28;20024;-50
2023/02/18 00:08:25;;;;;;;61.13;23.35;;;;;;;;;;5070844;28;20040;-50
2023/02/18 00:10:51;;;;;;;64.78;22.45;;;;;;;;;;5071069;28;20115;-50
2023/02/18 00:13:16;;;;;;;61.70;23.42;;;;;;;;;;5072980;28;20046;-50
2023/02/18 00:15:41;;;;;;;67.50;26.67;;;;;;;;;;5075070;28;20067;-50
2023/02/18 00:18:07;;;;;;;63.00;23.00;;;;;;;;;;5075038;28;20032;-50
2023/02/18 00:20:35;;;;;;;62.08;21.27;;;;;;;;;;5074932;28;20028;-50
2023/02/18 00:23:00;;;;;;;54.97;19.75;;;;;;;;;;5074871;28;20024;-50
2023/02/18 00:25:26;;;;;;;86.18;23.90;;;;;;;;;;5074759;28;20029;-50
2023/02/18 00:27:51;;;;;;;69.68;24.30;;;;;;;;;;5073514;28;20539;-50
2023/02/18 00:30:16;;;;;;;67.03;24.27;;;;;;;;;;5074811;28;20020;-50
2023/02/18 00:32:42;;;;;;;59.72;23.80;;;;;;;;;;5073257;28;20036;-50
2023/02/18 00:35:07;;;;;;;54.00;22.98;;;;;;;;;;5074992;28;20032;-50
2023/02/18 00:37:33;;;;;;;64.63;23.38;;;;;;;;;;5074595;28;20093;-50
2023/02/18 00:39:59;;;;;;;77.88;28.10;;;;;;;;;;5074512;28;20463;-50
2023/02/18 00:42:25;;;;;;;59.92;22.23;;;;;;;;;;5073156;28;20123;-50
2023/02/18 00:44:52;;;;;;;69.70;23.45;;;;;;;;;;5073537;28;20230;-50
2023/02/18 00:47:19;;;;;;;65.28;23.52;;;;;;;;;;5074577;28;20028;-50
2023/02/18 00:49:44;;;;;;;57.78;22.60;;;;;;;;;;5073159;28;20425;-50
2023/02/18 00:52:10;;;;;;;68.55;23.38;;;;;;;;;;5073031;28;20398;-50
2023/02/18 00:54:35;;;;;;;81.20;25.05;;;;;;;;;;5073116;28;20016;-50
2023/02/18 00:57:00;;;;;;;73.18;24.13;;;;;;;;;;5056350;28;20021;-50
2023/02/18 00:59:26;;;;;;;64.50;23.42;;;;;;;;;;5074170;28;20052;-50
2023/02/18 01:01:51;;;;;;;61.55;21.40;;;;;;;;;;5072948;28;20039;-50
2023/02/18 01:04:16;;;;;;;65.13;22.30;;;;;;;;;;5074063;28;20120;-50
2023/02/18 01:06:42;;;;;;;87.32;23.38;;;;;;;;;;5074120;28;20119;-50
2023/02/18 01:09:08;;;;;;;55.10;20.30;;;;;;;;;;5072807;28;20044;-50
2023/02/18 01:11:34;;;;;;;69.50;25.48;;;;;;;;;;5074212;28;20032;-49
2023/02/18 01:13:59;;;;;;;62.63;24.25;;;;;;;;;;5073983;28;20023;-50
2023/02/18 01:16:28;;;;;;;68.68;24.08;;;;;;;;;;5073924;28;20025;-50
2023/02/18 01:18:53;;;;;;;61.03;20.75;;;;;;;;;;5072550;28;20029;-49
2023/02/18 01:21:19;;;;;;;65.65;23.42;;;;;;;;;;5072508;28;20488;-50
2023/02/18 01:23:44;;;;;;;68.25;25.63;;;;;;;;;;5055343;28;20020;-50
2023/02/18 01:26:10;;;;;;;60.13;22.88;;;;;;;;;;5073300;28;20039;-50
2023/02/18 01:28:36;;;;;;;67.88;23.92;;;;;;;;;;5073677;28;20017;-50
2023/02/18 01:31:06;;;;;;;59.35;24.17;;;;;;;;;;5073971;28;20481;-50
2023/02/18 01:33:31;;;;;;;84.68;25.50;;;;;;;;;;5072089;28;20049;-50
2023/02/18 01:35:59;;;;;;;66.60;21.38;;;;;;;;;;5073599;28;20028;-50
2023/02/18 01:38:25;;;;;;;78.55;25.63;;;;;;;;;;5073503;28;20020;-50
2023/02/18 01:40:51;;;;;;;60.90;22.27;;;;;;;;;;5073568;28;20028;-50
2023/02/18 01:43:17;;;;;;;70.57;25.95;;;;;;;;;;5073417;28;20017;-50
2023/02/18 01:45:51;;;;;;;63.35;22.73;;;;;;;;;;5072052;28;20093;-50
2023/02/18 01:48:17;;;;;;;63.42;22.60;;;;;;;;;;5071934;28;20032;-49
2023/02/18 01:50:44;;;;;;;58.88;22.70;;;;;;;;;;5073420;28;20028;-50
2023/02/18 01:53:10;;;;;;;67.80;23.92;;;;;;;;;;5073564;28;20036;-49
2023/02/18 01:55:37;;;;;;;72.85;25.88;;;;;;;;;;5071901;28;20028;-50
2023/02/18 01:58:04;;;;;;;77.22;25.92;;;;;;;;;;5071862;28;20035;-50
2023/02/18 02:00:31;;;;;;;72.05;23.90;;;;;;;;;;5055123;28;20378;-50
2023/02/18 02:02:57;;;;;;;69.53;25.30;;;;;;;;;;5073125;28;20028;-50
2023/02/18 02:05:22;;;;;;;62.53;22.60;;;;;;;;;;5072825;28;20039;-50
2023/02/18 02:07:49;;;;;;;68.35;24.85;;;;;;;;;;5071639;28;20455;-50
2023/02/18 02:10:16;;;;;;;68.38;24.63;;;;;;;;;;5073219;28;20024;-50
2023/02/18 02:12:45;;;;;;;52.30;20.98;;;;;;;;;;5071570;28;20557;-50
2023/02/18 02:15:19;;;;;;;63.60;22.60;;;;;;;;;;5072882;28;20047;-50
2023/02/18 02:17:54;;;;;;;59.65;22.92;;;;;;;;;;5071390;28;20115;-50
2023/02/18 02:20:31;;;;;;;70.95;23.45;;;;;;;;;;5054698;28;20024;-50
2023/02/18 02:23:00;;;;;;;61.88;27.35;;;;;;;;;;5071331;28;20108;-49
2023/02/18 02:25:44;;;;;;;75.40;23.65;;;;;;;;;;5072539;28;20507;-50
2023/02/18 02:28:12;;;;;;;69.57;23.40;;;;;;;;;;5072549;28;20395;-50
2023/02/18 02:30:46;;;;;;;64.72;22.58;;;;;;;;;;5072483;28;20383;-50
2023/02/18 02:33:11;;;;;;;73.10;22.17;;;;;;;;;;5072335;28;20055;-50
2023/02/18 02:35:38;;;;;;;60.78;20.73;;;;;;;;;;5072311;28;20021;-50
2023/02/18 02:38:34;;;;;;;62.10;23.73;;;;;;;;;;5070976;28;20025;-50
2023/02/18 02:41:17;;;;;;;53.47;20.90;;;;;;;;;;5000586;28;20497;-50
2023/02/18 02:43:51;;;;;;;62.53;20.65;;;;;;;;;;5070981;28;20040;-50
2023/02/18 02:46:29;;;;;;;61.00;19.23;;;;;;;;;;5070846;28;20139;-50
2023/02/18 02:48:57;;;;;;;75.72;21.90;;;;;;;;;;5070836;28;20162;-50
2023/02/18 02:51:27;;;;;;;56.83;20.55;;;;;;;;;;5070769;28;20020;-50
2023/02/18 02:54:07;;;;;;;46.70;18.90;;;;;;;;;;5071134;28;20123;-50
2023/02/18 02:56:32;;;;;;;50.92;19.42;;;;;;;;;;5072043;28;20119;-50
2023/02/18 02:59:01;;;;;;;58.30;22.08;;;;;;;;;;5070680;28;20546;-53
2023/02/18 03:01:32;;;;;;;67.38;21.98;;;;;;;;;;5070540;28;20059;-50
2023/02/18 03:04:06;;;;;;;56.83;19.65;;;;;;;;;;5071906;28;20036;-49
2023/02/18 03:06:35;;;;;;;51.03;20.00;;;;;;;;;;5070427;28;20032;-49
2023/02/18 03:09:15;;;;;;;60.90;21.42;;;;;;;;;;5070548;28;20474;-50
2023/02/18 03:11:46;;;;;;;66.82;22.77;;;;;;;;;;5070367;28;20036;-50
2023/02/18 03:14:17;;;;;;;70.00;21.42;;;;;;;;;;5070568;28;20036;-50
2023/02/18 03:17:07;;;;;;;53.53;20.77;;;;;;;;;;5070444;28;20031;-49
2023/02/18 03:19:35;;;;;;;53.83;20.35;;;;;;;;;;5070131;28;20029;-50
2023/02/18 03:22:05;;;;;;;62.83;22.85;;;;;;;;;;5071706;28;20009;-49
2023/02/18 03:24:42;;;;;;;59.95;19.85;;;;;;;;;;5070219;28;20454;-50
2023/02/18 03:27:22;;;;;;;68.45;21.00;;;;;;;;;;5070371;28;20047;-51
2023/02/18 03:29:50;;;;;;;48.78;19.30;;;;;;;;;;5070251;28;20047;-50
2023/02/18 03:32:17;;;;;;;53.38;22.45;;;;;;;;;;5070090;28;20066;-50
2023/02/18 03:34:44;;;;;;;53.10;20.65;;;;;;;;;;5071522;28;20040;-50
2023/02/18 03:37:11;;;;;;;57.53;20.40;;;;;;;;;;5071442;28;20028;-49
2023/02/18 03:39:38;;;;;;;53.35;18.88;;;;;;;;;;5071553;28;20028;-50
2023/02/18 03:42:03;;;;;;;62.33;23.27;;;;;;;;;;5070124;28;20017;-50
2023/02/18 03:44:29;;;;;;;50.63;18.50;;;;;;;;;;5069966;28;20051;-50
2023/02/18 03:46:55;;;;;;;51.00;17.55;;;;;;;;;;5069776;28;20031;-50
2023/02/18 03:49:20;;;;;;;67.78;22.38;;;;;;;;;;5069816;28;20157;-50
2023/02/18 03:51:46;;;;;;;46.40;17.98;;;;;;;;;;5070062;28;20449;-50
2023/02/18 03:54:13;;;;;;;43.65;18.17;;;;;;;;;;5071258;28;20027;-50
2023/02/18 03:56:40;;;;;;;49.40;18.95;;;;;;;;;;5069970;28;20051;-50
2023/02/18 03:59:05;;;;;;;48.60;17.63;;;;;;;;;;5071265;28;20439;-50
2023/02/18 04:01:31;;;;;;;52.25;19.92;;;;;;;;;;5071183;28;20023;-50
2023/02/18 04:03:56;;;;;;;47.30;20.15;;;;;;;;;;5071242;28;20033;-50
2023/02/18 04:06:22;;;;;;;45.70;19.45;;;;;;;;;;5071057;28;20024;-49
2023/02/18 04:08:47;;;;;;;47.80;17.85;;;;;;;;;;5071149;28;20050;-49
2023/02/18 04:11:13;;;;;;;48.45;20.35;;;;;;;;;;5071218;28;20017;-50
2023/02/18 04:13:38;;;;;;;43.88;19.27;;;;;;;;;;5071333;28;20115;-50
2023/02/18 04:16:04;;;;;;;49.45;21.65;;;;;;;;;;5071166;28;20501;-50
2023/02/18 04:18:29;;;;;;;50.78;20.33;;;;;;;;;;5071236;28;20069;-50
2023/02/18 04:20:55;;;;;;;54.70;19.63;;;;;;;;;;5071104;28;20475;-50
2023/02/18 04:23:20;;;;;;;47.88;18.73;;;;;;;;;;5069688;28;20115;-50
2023/02/18 04:25:45;;;;;;;47.17;17.90;;;;;;;;;;5070848;28;20433;-50
2023/02/18 04:28:12;;;;;;;50.95;19.23;;;;;;;;;;5070874;28;20041;-50
2023/02/18 04:30:38;;;;;;;56.15;19.38;;;;;;;;;;5070873;28;20081;-50
2023/02/18 04:33:03;;;;;;;48.85;18.92;;;;;;;;;;5070922;28;20045;-50
2023/02/18 04:35:29;;;;;;;51.22;16.85;;;;;;;;;;5069934;28;20377;-50
2023/02/18 04:37:54;;;;;;;42.50;16.63;;;;;;;;;;5070818;28;20109;-50
2023/02/18 04:40:20;;;;;;;36.00;16.15;;;;;;;;;;5070768;28;20016;-53
2023/02/18 04:42:45;;;;;;;61.17;18.80;;;;;;;;;;5071179;28;20029;-50
2023/02/18 04:45:11;;;;;;;52.17;17.35;;;;;;;;;;5070834;28;20032;-50
2023/02/18 04:47:36;;;;;;;41.72;18.77;;;;;;;;;;5070762;28;20028;-50
2023/02/18 04:50:02;;;;;;;43.80;18.25;;;;;;;;;;5070865;28;20382;-49
2023/02/18 04:52:27;;;;;;;53.25;21.90;;;;;;;;;;5070993;28;20139;-50
2023/02/18 04:54:53;;;;;;;57.38;20.40;;;;;;;;;;5071042;28;20416;-50
2023/02/18 04:57:18;;;;;;;44.35;19.13;;;;;;;;;;5070838;28;20033;-50
2023/02/18 04:59:44;;;;;;;47.97;18.38;;;;;;;;;;5071627;28;20387;-50
2023/02/18 05:02:09;;;;;;;52.97;18.73;;;;;;;;;;5072952;28;20029;-50
2023/02/18 05:04:34;;;;;;;54.05;17.88;;;;;;;;;;5074039;28;20031;-50
2023/02/18 05:07:00;;;;;;;51.65;22.05;;;;;;;;;;5074078;28;20040;-50
2023/02/18 05:09:25;;;;;;;51.08;16.90;;;;;;;;;;5074301;28;20020;-49
2023/02/18 05:11:51;;;;;;;49.28;17.67;;;;;;;;;;5074391;28;20422;-50
2023/02/18 05:14:17;;;;;;;56.80;20.83;;;;;;;;;;5074331;28;20028;-51
2023/02/18 05:16:42;;;;;;;51.55;20.17;;;;;;;;;;5074158;28;20028;-50
2023/02/18 05:19:09;;;;;;;50.70;22.70;;;;;;;;;;5073928;28;20021;-50
2023/02/18 05:21:35;;;;;;;55.83;16.80;;;;;;;;;;5074157;28;20021;-50
2023/02/18 05:24:00;;;;;;;42.47;17.95;;;;;;;;;;5073746;28;20047;-50
2023/02/18 05:26:25;;;;;;;42.80;19.25;;;;;;;;;;5073758;28;20177;-49
2023/02/18 05:28:51;;;;;;;48.60;19.17;;;;;;;;;;5072426;28;20111;-50
2023/02/18 05:31:16;;;;;;;54.15;22.17;;;;;;;;;;5074038;28;20039;-49
2023/02/18 05:33:42;;;;;;;52.40;20.50;;;;;;;;;;5073515;28;20380;-50
2023/02/18 05:36:07;;;;;;;50.42;17.70;;;;;;;;;;5072451;28;20036;-49
2023/02/18 05:38:33;;;;;;;51.65;20.35;;;;;;;;;;5073447;28;20064;-50
2023/02/18 05:40:58;;;;;;;44.05;16.67;;;;;;;;;;5073601;28;20025;-50
2023/02/18 05:43:23;;;;;;;49.15;19.13;;;;;;;;;;5073464;28;20020;-50
2023/02/18 05:45:49;;;;;;;45.95;17.92;;;;;;;;;;5073382;28;20437;-50
2023/02/18 05:48:14;;;;;;;47.50;19.02;;;;;;;;;;5073593;28;20013;-50
2023/02/18 05:50:40;;;;;;;45.50;18.05;;;;;;;;;;5073259;28;20383;-51
2023/02/18 05:53:05;;;;;;;46.63;19.13;;;;;;;;;;5073615;28;20017;-50
2023/02/18 05:55:31;;;;;;;46.13;19.27;;;;;;;;;;5073107;28;20044;-50
2023/02/18 05:57:56;;;;;;;56.05;19.65;;;;;;;;;;5073195;28;20017;-50
2023/02/18 06:00:21;;;;;;;58.33;17.58;;;;;;;;;;5073190;28;20064;-50
2023/02/18 06:02:47;;;;;;;70.00;21.83;;;;;;;;;;5071868;28;20021;-50
2023/02/18 06:05:12;;;;;;;45.78;17.90;;;;;;;;;;5073042;28;20062;-49
2023/02/18 06:07:38;;;;;;;47.25;19.35;;;;;;;;;;5072842;28;20037;-50
2023/02/18 06:10:04;;;;;;;60.20;20.98;;;;;;;;;;5072924;28;20123;-50
2023/02/18 06:12:30;;;;;;;50.97;18.90;;;;;;;;;;5072985;28;20025;-50
2023/02/18 06:14:55;;;;;;;46.08;18.17;;;;;;;;;;5073315;28;20489;-50
2023/02/18 06:17:21;;;;;;;53.38;19.27;;;;;;;;;;5072958;28;20494;-50
2023/02/18 06:19:47;;;;;;;54.22;19.98;;;;;;;;;;5072787;28;20032;-50
2023/02/18 06:22:12;;;;;;;52.58;18.20;;;;;;;;;;5073032;28;20028;-50
2023/02/18 06:24:38;;;;;;;55.80;21.13;;;;;;;;;;5072810;28;20032;-50
2023/02/18 06:27:03;;;;;;;54.25;20.85;;;;;;;;;;5072537;28;20036;-50
2023/02/18 06:29:30;;;;;;;40.90;17.35;;;;;;;;;;5071265;28;20034;-50
2023/02/18 06:31:56;;;;;;;48.47;18.35;;;;;;;;;;5072475;28;20078;-50
2023/02/18 06:34:21;;;;;;;54.38;20.45;;;;;;;;;;5072245;28;20055;-50
2023/02/18 06:36:47;;;;;;;47.25;19.48;;;;;;;;;;5071457;28;20115;-50
2023/02/18 06:39:12;;;;;;;50.25;17.77;;;;;;;;;;5072388;28;20359;-51
2023/02/18 06:41:39;;;;;;;52.70;18.67;;;;;;;;;;5071124;28;20036;-50
2023/02/18 06:44:04;;;;;;;41.85;18.75;;;;;;;;;;5072154;28;20078;-50
2023/02/18 06:46:30;;;;;;;47.97;18.42;;;;;;;;;;5072235;28;20024;-50
2023/02/18 06:48:55;;;;;;;47.30;18.05;;;;;;;;;;5072172;28;20029;-50
2023/02/18 06:51:21;;;;;;;48.58;19.13;;;;;;;;;;5072151;28;20060;-51
2023/02/18 06:53:46;;;;;;;58.08;20.92;;;;;;;;;;5072179;28;20532;-50
2023/02/18 06:56:11;;;;;;;49.95;20.75;;;;;;;;;;5072042;28;20052;-50
2023/02/18 06:58:38;;;;;;;43.80;17.65;;;;;;;;;;5071907;28;20041;-50
2023/02/18 07:01:03;;;;;;;55.10;19.67;;;;;;;;;;5072011;28;20042;-50
2023/02/18 07:03:30;;;;;;;53.28;19.33;;;;;;;;;;5071779;28;20033;-50
2023/02/18 07:05:55;;;;;;;56.42;19.25;;;;;;;;;;5071805;28;20035;-50
2023/02/18 07:08:21;;;;;;;54.15;19.70;;;;;;;;;;5071714;28;20112;-50
2023/02/18 07:10:48;;;;;;;52.13;19.85;;;;;;;;;;5071752;28;20032;-51
2023/02/18 07:13:14;;;;;;;58.58;20.92;;;;;;;;;;5072120;28;20481;-50
2023/02/18 07:15:39;;;;;;;47.72;18.25;;;;;;;;;;5071891;28;20032;-50
2023/02/18 07:18:05;;;;;;;54.80;20.60;;;;;;;;;;5071661;28;20502;-50
2023/02/18 07:20:31;;;;;;;47.58;18.25;;;;;;;;;;5071588;28;20040;-50
2023/02/18 07:22:57;;;;;;;44.85;18.25;;;;;;;;;;5070903;28;20107;-50
2023/02/18 07:25:23;;;;;;;52.58;17.67;;;;;;;;;;5071768;28;20032;-50
2023/02/18 07:27:49;;;;;;;45.42;17.40;;;;;;;;;;5071530;28;20059;-50
2023/02/18 07:30:15;;;;;;;45.13;18.77;;;;;;;;;;5071594;28;20506;-50
2023/02/18 07:32:41;;;;;;;52.05;21.02;;;;;;;;;;5071383;28;20814;-50
2023/02/18 07:35:06;;;;;;;47.33;18.83;;;;;;;;;;5071599;28;20032;-50
2023/02/18 07:37:32;;;;;;;46.83;19.00;;;;;;;;;;5071359;28;20036;-50
2023/02/18 07:39:57;;;;;;;52.17;20.17;;;;;;;;;;5071379;28;20028;-50
2023/02/18 07:42:23;;;;;;;45.17;18.35;;;;;;;;;;5071703;28;20028;-50
2023/02/18 07:44:48;;;;;;;59.35;20.60;;;;;;;;;;5070060;28;20453;-50
2023/02/18 07:47:16;;;;;;;46.70;18.73;;;;;;;;;;5071341;28;20024;-50
2023/02/18 07:49:41;;;;;;;44.38;17.58;;;;;;;;;;5069978;28;20082;-50
2023/02/18 07:52:06;;;;;;;48.08;18.50;;;;;;;;;;5071391;28;20028;-50
2023/02/18 07:54:32;;;;;;;53.38;20.58;;;;;;;;;;5071336;28;20104;-50
2023/02/18 07:56:57;;;;;;;51.13;19.75;;;;;;;;;;5070315;28;20045;-50
2023/02/18 07:59:23;;;;;;;39.80;16.60;;;;;;;;;;5071081;28;20101;-50
2023/02/18 08:01:48;;;;;;;44.78;16.20;;;;;;;;;;5071549;28;20036;-50
2023/02/18 08:04:14;;;;;;;44.42;17.50;;;;;;;;;;5069880;28;20029;-50
2023/02/18 08:06:42;;;;;;;41.90;16.75;;;;;;;;;;5071350;28;20395;-50
2023/02/18 08:09:07;;;;;;;55.88;20.02;;;;;;;;;;5071205;28;20020;-51
2023/02/18 08:11:33;;;;;;;44.40;19.48;;;;;;;;;;5071119;28;20037;-50
2023/02/18 08:13:59;;;;;;;55.53;19.63;;;;;;;;;;5071194;28;20463;-50
2023/02/18 08:16:25;;;;;;;51.72;19.27;;;;;;;;;;5071170;28;20397;-50
2023/02/18 08:18:51;;;;;;;61.38;18.75;;;;;;;;;;5071008;28;20451;-50
2023/02/18 08:21:17;;;;;;;39.72;16.73;;;;;;;;;;5069928;28;20040;-50
2023/02/18 08:23:43;;;;;;;52.65;19.17;;;;;;;;;;5069715;28;20019;-50
2023/02/18 08:26:08;;;;;;;48.47;18.08;;;;;;;;;;5071047;28;20131;-50
2023/02/18 08:28:40;;;;;;;49.70;16.88;;;;;;;;;;5070901;28;20114;-50
2023/02/18 08:31:05;;;;;;;43.45;18.55;;;;;;;;;;5071302;28;20102;-50
2023/02/18 08:33:31;;;;;;;46.03;18.33;;;;;;;;;;5071369;28;20036;-50
2023/02/18 08:35:57;;;;;;;59.33;20.65;;;;;;;;;;5074794;28;20131;-50
2023/02/18 08:38:23;;;;;;;50.92;20.13;;;;;;;;;;5074627;28;20431;-50
2023/02/18 08:40:49;;;;;;;57.10;19.23;;;;;;;;;;5073510;28;20040;-50
2023/02/18 08:43:15;;;;;;;39.05;17.35;;;;;;;;;;5074608;28;20102;-50
2023/02/18 08:45:41;;;;;;;41.85;16.27;;;;;;;;;;5074395;28;20487;-50
2023/02/18 08:48:07;;;;;;;55.75;18.55;;;;;;;;;;5074421;28;20073;-49
2023/02/18 08:50:33;;;;;;;53.88;20.48;;;;;;;;;;5074484;28;20104;-50
2023/02/18 08:53:00;;;;;;;47.88;19.27;;;;;;;;;;5074542;28;20108;-50
2023/02/18 08:55:26;;;;;;;42.55;17.45;;;;;;;;;;5074224;28;20514;-50
2023/02/18 08:57:51;;;;;;;46.70;19.17;;;;;;;;;;5074581;28;20044;-50
2023/02/18 09:00:17;;;;;;;57.08;20.90;;;;;;;;;;5074511;28;20024;-50
2023/02/18 09:02:43;;;;;;;40.00;15.50;;;;;;;;;;5074192;28;20494;-50
2023/02/18 09:05:09;;;;;;;56.78;21.27;;;;;;;;;;5074454;28;20041;-50
2023/02/18 09:07:35;;;;;;;52.78;18.88;;;;;;;;;;5074041;28;20055;-50
2023/02/18 09:10:00;;;;;;;59.63;21.35;;;;;;;;;;5074442;28;20043;-49
2023/02/18 09:12:26;;;;;;;51.95;19.88;;;;;;;;;;5074062;28;20024;-50
2023/02/18 09:14:52;;;;;;;48.08;17.63;;;;;;;;;;5074274;28;20036;-50
2023/02/18 09:17:17;;;;;;;51.85;20.65;;;;;;;;;;5072658;28;20538;-50
2023/02/18 09:19:43;;;;;;;59.05;19.30;;;;;;;;;;5073843;28;20111;-50
2023/02/18 09:22:08;;;;;;;49.33;17.98;;;;;;;;;;5072756;28;20022;-50
2023/02/18 09:24:37;;;;;;;50.05;19.67;;;;;;;;;;5074019;28;20029;-50
2023/02/18 09:27:03;;;;;;;41.08;17.42;;;;;;;;;;5073774;28;20029;-50
2023/02/18 09:29:28;;;;;;;65.68;21.35;;;;;;;;;;5073767;28;20088;-50
2023/02/18 09:31:54;;;;;;;51.78;17.75;;;;;;;;;;5072455;28;20493;-50
2023/02/18 09:34:19;;;;;;;42.70;16.80;;;;;;;;;;5073594;28;20051;-50
2023/02/18 09:36:45;;;;;;;50.65;18.58;;;;;;;;;;5073601;28;20031;-50
2023/02/18 09:39:11;;;;;;;53.70;20.33;;;;;;;;;;5073566;28;20032;-50
2023/02/18 09:41:47;;;;;;;49.17;21.20;;;;;;;;;;5073466;28;20017;-49
2023/02/18 09:44:20;;;;;;;48.55;17.70;;;;;;;;;;5073411;28;20032;-51
2023/02/18 09:47:18;;;;;;;49.00;18.85;;;;;;;;;;5072862;28;20040;-51
2023/02/18 09:49:46;;;;;;;57.00;20.95;;;;;;;;;;5028971;28;20037;-50
2023/02/18 09:52:15;;;;;;;51.45;17.65;;;;;;;;;;5073276;28;20383;-50
2023/02/18 09:54:41;;;;;;;47.63;18.45;;;;;;;;;;5073228;28;20028;-50
2023/02/18 09:57:14;;;;;;;55.05;18.77;;;;;;;;;;5073536;28;20021;-50
2023/02/18 09:59:40;;;;;;;69.72;21.05;;;;;;;;;;5073118;28;20399;-50
2023/02/18 10:02:09;;;;;;;50.10;19.98;;;;;;;;;;5072014;28;20085;-50
2023/02/18 10:04:51;;;;;;;51.83;18.02;;;;;;;;;;5073209;28;20040;-50
2023/02/18 10:07:28;;;;;;;49.92;19.70;;;;;;;;;;5073104;28;20435;-50
2023/02/18 10:09:55;;;;;;;44.40;19.55;;;;;;;;;;5072967;28;20024;-51
2023/02/18 10:12:22;;;;;;;45.97;17.17;;;;;;;;;;5072992;28;20091;-51
2023/02/18 10:14:55;;;;;;;56.83;20.13;;;;;;;;;;5072869;28;20032;-50
2023/02/18 10:17:22;;;;;;;56.72;18.88;;;;;;;;;;5072922;28;20043;-50
2023/02/18 10:19:48;;;;;;;58.72;19.38;;;;;;;;;;5072983;28;20190;-50
2023/02/18 10:22:15;;;;;;;47.90;19.73;;;;;;;;;;5072817;28;20111;-50
2023/02/18 10:24:42;;;;;;;41.97;17.48;;;;;;;;;;5071253;28;20024;-50
2023/02/18 10:27:08;;;;;;;55.47;18.45;;;;;;;;;;5071496;28;20039;-50
2023/02/18 10:29:34;;;;;;;45.67;16.13;;;;;;;;;;5072582;28;20491;-50
2023/02/18 10:32:18;;;;;;;55.90;18.38;;;;;;;;;;5072535;28;20025;-50
2023/02/18 10:34:49;;;;;;;50.45;18.65;;;;;;;;;;5072486;28;20105;-50
2023/02/18 10:37:30;;;;;;;36.15;18.52;;;;;;;;;;5071206;28;20028;-50
2023/02/18 10:40:19;;;;;;;70.97;22.60;;;;;;;;;;5072323;28;20040;-50
2023/02/18 10:42:47;;;;;;;55.92;19.75;;;;;;;;;;5061590;28;20045;-50
2023/02/18 10:45:19;;;;;;;56.22;19.80;;;;;;;;;;5072457;28;20059;-50
2023/02/18 10:47:44;;;;;;;55.70;20.23;;;;;;;;;;5072126;28;20064;-50
2023/02/18 10:50:25;;;;;;;50.92;20.70;;;;;;;;;;5072110;28;20502;-50
2023/02/18 10:52:52;;;;;;;57.13;20.38;;;;;;;;;;5072481;28;20436;-50
2023/02/18 10:55:17;;;;;;;48.90;20.08;;;;;;;;;;5072061;28;20081;-50
2023/02/18 10:57:46;;;;;;;51.85;20.75;;;;;;;;;;5072175;28;20028;-50
2023/02/18 11:00:22;;;;;;;42.50;17.33;;;;;;;;;;5071987;28;20016;-50
2023/02/18 11:03:12;;;;;;;54.00;20.17;;;;;;;;;;5071962;28;20039;-50
2023/02/18 11:05:38;;;;;;;54.30;20.67;;;;;;;;;;5071769;28;20120;-50
2023/02/18 11:08:06;;;;;;;55.38;20.55;;;;;;;;;;5072019;28;20108;-50
2023/02/18 11:10:37;;;;;;;52.97;21.00;;;;;;;;;;5071683;28;20029;-50
2023/02/18 11:13:05;;;;;;;65.78;25.00;;;;;;;;;;5071779;28;20033;-50
2023/02/18 11:15:31;;;;;;;56.85;22.13;;;;;;;;;;5070430;28;20394;-50
2023/02/18 11:18:13;;;;;;;47.55;19.90;;;;;;;;;;5071730;28;20032;-50
2023/02/18 11:20:39;;;;;;;53.95;19.52;;;;;;;;;;5071950;28;20061;-50
2023/02/18 11:23:04;;;;;;;46.42;19.00;;;;;;;;;;5071768;28;20056;-50
2023/02/18 11:25:32;;;;;;;48.63;18.58;;;;;;;;;;5070237;28;20032;-50
2023/02/18 11:27:59;;;;;;;48.53;20.40;;;;;;;;;;5071798;28;20078;-50
2023/02/18 11:30:39;;;;;;;56.38;20.83;;;;;;;;;;5071874;28;20079;-50
2023/02/18 11:33:09;;;;;;;49.70;17.30;;;;;;;;;;5071407;28;20372;-50
2023/02/18 11:35:35;;;;;;;55.53;17.42;;;;;;;;;;5071487;28;20043;-50
2023/02/18 11:38:03;;;;;;;43.67;20.08;;;;;;;;;;5071639;28;20050;-50
2023/02/18 11:40:30;;;;;;;50.83;19.80;;;;;;;;;;5071661;28;20037;-50
2023/02/18 11:43:09;;;;;;;43.30;18.02;;;;;;;;;;5071482;28;20086;-50
2023/02/18 11:45:34;;;;;;;61.42;21.58;;;;;;;;;;5070413;28;20044;-50
2023/02/18 11:48:05;;;;;;;41.00;16.85;;;;;;;;;;5071389;28;20485;-50
2023/02/18 11:50:32;;;;;;;49.85;18.98;;;;;;;;;;5071338;28;20028;-50
2023/02/18 11:52:58;;;;;;;50.53;21.63;;;;;;;;;;5071345;28;20111;-50
2023/02/18 11:55:29;;;;;;;55.88;19.60;;;;;;;;;;5071354;28;20154;-50
2023/02/18 11:57:56;;;;;;;44.63;18.20;;;;;;;;;;5071213;28;20036;-50
2023/02/18 12:00:22;;;;;;;55.25;19.95;;;;;;;;;;5071321;28;20017;-50
2023/02/18 12:02:48;;;;;;;55.20;20.70;;;;;;;;;;5071499;28;20045;-50
2023/02/18 12:05:24;;;;;;;42.95;17.50;;;;;;;;;;5071188;28;20028;-50
2023/02/18 12:07:51;;;;;;;47.13;19.23;;;;;;;;;;5071086;28;20477;-50
2023/02/18 12:10:38;;;;;;;47.83;18.42;;;;;;;;;;5075186;28;20028;-50
2023/02/18 12:13:06;;;;;;;44.65;19.13;;;;;;;;;;5075209;28;20043;-50
2023/02/18 12:15:51;;;;;;;46.63;19.23;;;;;;;;;;5075144;28;20505;-50
2023/02/18 12:18:37;;;;;;;48.30;19.48;;;;;;;;;;5075118;28;20059;-50
2023/02/18 12:21:14;;;;;;;45.58;16.75;;;;;;;;;;5075111;28;20024;-50
2023/02/18 12:23:42;;;;;;;36.75;16.95;;;;;;;;;;5074947;28;20043;-50
2023/02/18 12:26:17;;;;;;;46.67;21.35;;;;;;;;;;5075182;28;20032;-50
2023/02/18 12:28:42;;;;;;;57.10;20.13;;;;;;;;;;5075158;28;20622;-50
2023/02/18 12:31:15;;;;;;;42.25;19.70;;;;;;;;;;5075194;28;20056;-50
2023/02/18 12:33:59;;;;;;;37.15;17.30;;;;;;;;;;5074586;28;20055;-50
2023/02/18 12:36:48;;;;;;;41.63;16.92;;;;;;;;;;5074773;28;20064;-50
2023/02/18 12:39:13;;;;;;;41.10;18.20;;;;;;;;;;5075019;28;20048;-50
2023/02/18 12:41:39;;;;;;;42.92;19.80;;;;;;;;;;5074607;28;20056;-50
2023/02/18 12:44:13;;;;;;;49.80;19.42;;;;;;;;;;5074573;28;20055;-50
2023/02/18 12:46:59;;;;;;;43.45;16.73;;;;;;;;;;5074426;28;20044;-50
2023/02/18 12:49:31;;;;;;;36.47;18.38;;;;;;;;;;5033431;28;20498;-50
2023/02/18 12:52:15;;;;;;;41.45;15.80;;;;;;;;;;5074495;28;20027;-50
2023/02/18 12:54:54;;;;;;;37.25;16.52;;;;;;;;;;5074358;28;20466;-50
2023/02/18 12:57:25;;;;;;;44.67;16.23;;;;;;;;;;5074357;28;20467;-50
2023/02/18 12:59:54;;;;;;;47.42;17.90;;;;;;;;;;5074339;28;20035;-50
2023/02/18 13:02:22;;;;;;;37.20;16.02;;;;;;;;;;5074594;28;20031;-50
2023/02/18 13:04:54;;;;;;;42.65;16.70;;;;;;;;;;5074150;28;20044;-50
2023/02/18 13:07:22;;;;;;;36.63;16.73;;;;;;;;;;5074227;28;20060;-50
2023/02/18 13:10:06;;;;;;;45.85;18.65;;;;;;;;;;5074012;28;20032;-50
2023/02/18 13:12:35;;;;;;;32.85;14.52;;;;;;;;;;5074271;28;20029;-50
2023/02/18 13:15:16;;;;;;;41.72;16.08;;;;;;;;;;5072779;28;20029;-50
2023/02/18 13:17:42;;;;;;;42.25;18.17;;;;;;;;;;5073851;28;20021;-50
2023/02/18 13:20:32;;;;;;;36.00;17.17;;;;;;;;;;5072808;28;20070;-50
2023/02/18 13:22:58;;;;;;;36.85;17.35;;;;;;;;;;5073888;28;20035;-50
2023/02/18 13:25:24;;;;;;;38.40;17.15;;;;;;;;;;5072533;28;20029;-50
2023/02/18 13:27:49;;;;;;;38.58;17.10;;;;;;;;;;5073723;28;20097;-50
2023/02/18 13:30:21;;;;;;;41.17;16.70;;;;;;;;;;5073883;28;20079;-50
2023/02/18 13:32:52;;;;;;;44.05;16.58;;;;;;;;;;5073496;28;20060;-50
2023/02/18 13:35:24;;;;;;;48.33;18.52;;;;;;;;;;5072487;28;20047;-50
2023/02/18 13:38:13;;;;;;;41.83;17.88;;;;;;;;;;5072319;28;20041;-50
2023/02/18 13:40:39;;;;;;;42.25;17.30;;;;;;;;;;5073542;28;20056;-50
2023/02/18 13:43:29;;;;;;;37.95;15.48;;;;;;;;;;5073595;28;20023;-50
2023/02/18 13:46:08;;;;;;;41.35;16.35;;;;;;;;;;5073417;28;20036;-50
2023/02/18 13:48:44;;;;;;;39.38;17.73;;;;;;;;;;5073434;28;20039;-50
2023/02/18 13:51:11;;;;;;;39.15;19.38;;;;;;;;;;5073427;28;20031;-50
2023/02/18 13:53:38;;;;;;;47.20;19.02;;;;;;;;;;5073326;28;20527;-50
2023/02/18 13:56:16;;;;;;;42.08;16.80;;;;;;;;;;5073309;28;20377;-50
2023/02/18 13:58:44;;;;;;;41.95;18.75;;;;;;;;;;5073440;28;20094;-50
2023/02/18 14:01:10;;;;;;;32.17;16.02;;;;;;;;;;5073551;28;20016;-50
2023/02/18 14:03:39;;;;;;;43.97;18.35;;;;;;;;;;5073148;28;20115;-50
2023/02/18 14:06:17;;;;;;;44.00;17.02;;;;;;;;;;5072996;28;20056;-50
2023/02/18 14:08:43;;;;;;;48.47;18.20;;;;;;;;;;5071644;28;20478;-50
2023/02/18 14:11:12;;;;;;;39.72;17.20;;;;;;;;;;5073385;28;20063;-50
2023/02/18 14:13:39;;;;;;;34.38;15.63;;;;;;;;;;5072887;28;20025;-50
2023/02/18 14:16:04;;;;;;;37.85;15.02;;;;;;;;;;5072960;28;20044;-50
2023/02/18 14:18:31;;;;;;;42.53;17.77;;;;;;;;;;5072848;28;20067;-50
2023/02/18 14:21:17;;;;;;;32.05;15.13;;;;;;;;;;5072849;28;20072;-50
2023/02/18 14:24:05;;;;;;;34.63;13.80;;;;;;;;;;5071519;28;20441;-50